Time;durP1;ratioP1;P1;durP2;ratioP2;P2;SDS_P1;SDS_P2;PMS_P1;PMS_P2;Temp;Humidity;BMP_temperature;BMP_pressure;BME280_temperature;BME280_humidity;BME280_pressure;Samples;Min_cycle;Max_cycle;Signal;HPM_P1;HPM_P2
2023/03/08 00:00:13;;;;;;;8.83;5.97;;;1.70;99.90;;;;;;5080874;28;20239;-81
2023/03/08 00:02:39;;;;;;;11.23;6.17;;;1.70;99.90;;;;;;5081299;28;20544;-80
2023/03/08 00:05:05;;;;;;;10.17;6.33;;;1.70;99.90;;;;;;5098929;28;20210;-81
2023/03/08 00:07:31;;;;;;;10.27;6.23;;;1.70;99.90;;;;;;5099542;28;20184;-80
2023/03/08 00:09:57;;;;;;;8.50;5.70;;;1.80;99.90;;;;;;5081376;28;20625;-80
2023/03/08 00:12:22;;;;;;;9.80;6.60;;;1.70;99.90;;;;;;5099587;28;20221;-80
2023/03/08 00:14:49;;;;;;;9.20;5.90;;;1.60;99.90;;;;;;5081022;28;20276;-80
2023/03/08 00:17:15;;;;;;;8.97;5.90;;;1.60;99.90;;;;;;5099233;28;20254;-81
2023/03/08 00:19:41;;;;;;;8.27;5.80;;;1.60;99.90;;;;;;5098946;28;20269;-80
2023/03/08 00:22:07;;;;;;;10.10;6.23;;;1.60;99.90;;;;;;5098382;28;20186;-80
2023/03/08 00:24:33;;;;;;;9.03;5.57;;;1.60;99.90;;;;;;5099441;28;20174;-80
2023/03/08 00:26:59;;;;;;;8.53;5.30;;;1.60;99.90;;;;;;5098911;28;20542;-81
2023/03/08 00:29:24;;;;;;;7.43;5.07;;;1.60;99.90;;;;;;5080772;28;20197;-80
2023/03/08 00:31:50;;;;;;;8.10;5.47;;;1.60;99.90;;;;;;5080994;28;20228;-81
2023/03/08 00:34:16;;;;;;;10.07;5.87;;;1.50;99.90;;;;;;5099080;28;20174;-81
2023/03/08 00:36:42;;;;;;;8.70;5.90;;;1.50;99.90;;;;;;5099184;28;20182;-80
2023/03/08 00:39:08;;;;;;;7.23;5.37;;;1.50;99.90;;;;;;5098495;28;20622;-80
2023/03/08 00:41:34;;;;;;;9.13;6.03;;;1.50;99.90;;;;;;5080253;28;20289;-81
2023/03/08 00:43:59;;;;;;;9.03;5.90;;;1.50;99.90;;;;;;5080481;28;20213;-81
2023/03/08 00:46:25;;;;;;;7.93;5.63;;;1.50;99.90;;;;;;5081011;28;20209;-80
2023/03/08 00:48:50;;;;;;;8.90;5.60;;;1.50;99.90;;;;;;5080489;28;20689;-81
2023/03/08 00:51:19;;;;;;;9.70;6.20;;;1.50;99.90;;;;;;5098474;28;20269;-80
2023/03/08 00:53:44;;;;;;;9.27;5.83;;;1.50;99.90;;;;;;5098983;28;20174;-80
2023/03/08 00:56:10;;;;;;;9.00;5.57;;;1.50;99.90;;;;;;5099042;28;20213;-80
2023/03/08 00:58:38;;;;;;;9.93;6.10;;;1.50;99.90;;;;;;5081427;28;20265;-80
2023/03/08 01:01:04;;;;;;;8.60;5.73;;;1.50;99.90;;;;;;5102855;28;20220;-80
2023/03/08 01:03:30;;;;;;;9.90;5.57;;;1.60;99.90;;;;;;5102521;28;20171;-81
2023/03/08 01:05:57;;;;;;;10.90;6.37;;;1.50;99.90;;;;;;5084162;28;20275;-80
2023/03/08 01:08:24;;;;;;;7.87;5.73;;;1.50;99.90;;;;;;5083968;28;20177;-80
2023/03/08 01:10:56;;;;;;;9.53;6.07;;;1.50;99.90;;;;;;5102273;28;20195;-80
2023/03/08 01:13:23;;;;;;;6.80;4.80;;;1.50;99.90;;;;;;5102289;28;20150;-81
2023/03/08 01:15:49;;;;;;;8.70;5.60;;;1.50;99.90;;;;;;5102358;28;20661;-81
2023/03/08 01:18:15;;;;;;;9.97;5.70;;;1.50;99.90;;;;;;5083501;28;20186;-81
2023/03/08 01:20:41;;;;;;;8.77;5.93;;;1.50;99.90;;;;;;5083700;28;20632;-80
2023/03/08 01:23:06;;;;;;;7.83;5.47;;;1.50;99.90;;;;;;5084417;28;20258;-82
2023/03/08 01:25:32;;;;;;;7.67;5.20;;;1.50;99.90;;;;;;5083603;28;20175;-81
2023/03/08 01:27:58;;;;;;;10.93;6.17;;;1.50;99.90;;;;;;5102246;28;20170;-81
2023/03/08 01:30:23;;;;;;;8.50;5.47;;;1.50;99.90;;;;;;5102280;28;20178;-80
2023/03/08 01:32:49;;;;;;;9.67;5.47;;;1.50;99.90;;;;;;5101875;28;20170;-80
2023/03/08 01:35:14;;;;;;;9.07;5.73;;;1.50;99.90;;;;;;5083250;28;20217;-81
2023/03/08 01:37:40;;;;;;;12.80;6.13;;;1.50;99.90;;;;;;5082990;28;20182;-80
2023/03/08 01:40:08;;;;;;;8.07;5.73;;;1.50;99.90;;;;;;5102495;28;20198;-80
2023/03/08 01:42:33;;;;;;;9.30;6.10;;;1.50;99.90;;;;;;5101538;28;20190;-81
2023/03/08 01:45:05;;;;;;;9.00;5.50;;;1.50;99.90;;;;;;5083046;28;20319;-81
2023/03/08 01:47:34;;;;;;;8.27;5.80;;;1.50;99.90;;;;;;5101722;28;20162;-81
2023/03/08 01:50:06;;;;;;;8.53;6.43;;;1.50;99.90;;;;;;5082764;28;20239;-81
2023/03/08 01:52:39;;;;;;;9.73;6.30;;;1.50;99.90;;;;;;5082455;28;20205;-80
2023/03/08 01:55:10;;;;;;;8.43;5.87;;;1.50;99.90;;;;;;5083790;28;20585;-81
2023/03/08 01:57:40;;;;;;;11.10;6.27;;;1.50;99.90;;;;;;5101665;28;20163;-81
2023/03/08 02:00:14;;;;;;;7.37;5.63;;;1.50;99.90;;;;;;5101423;28;20197;-81
2023/03/08 02:02:47;;;;;;;8.37;5.93;;;1.50;99.90;;;;;;5101021;28;20214;-81
2023/03/08 02:05:13;;;;;;;8.73;5.40;;;1.50;99.90;;;;;;5101490;28;20163;-81
2023/03/08 02:07:39;;;;;;;8.40;5.70;;;1.50;99.90;;;;;;5101225;28;20181;-81
2023/03/08 02:10:05;;;;;;;9.23;5.00;;;1.50;99.90;;;;;;5083303;28;20170;-81
2023/03/08 02:12:31;;;;;;;10.77;5.30;;;1.50;99.90;;;;;;5101447;28;20198;-81
2023/03/08 02:14:57;;;;;;;8.47;5.60;;;1.50;99.90;;;;;;5082680;28;20178;-81
2023/03/08 02:17:24;;;;;;;8.20;5.43;;;1.50;99.90;;;;;;5082933;28;20557;-81
2023/03/08 02:20:00;;;;;;;8.10;5.50;;;1.50;99.90;;;;;;5083557;28;20200;-81
2023/03/08 02:22:26;;;;;;;10.37;5.50;;;1.50;99.90;;;;;;5083388;28;20190;-81
2023/03/08 02:24:51;;;;;;;8.70;5.47;;;1.50;99.90;;;;;;5082989;28;20178;-81
2023/03/08 02:27:21;;;;;;;7.90;5.17;;;1.50;99.90;;;;;;5101995;28;20170;-81
2023/03/08 02:29:47;;;;;;;7.30;5.20;;;1.50;99.90;;;;;;5101607;28;20611;-81
2023/03/08 02:32:13;;;;;;;6.47;4.80;;;1.50;99.90;;;;;;5102441;28;20240;-81
2023/03/08 02:34:38;;;;;;;10.27;5.57;;;1.50;99.90;;;;;;5108142;28;20178;-80
2023/03/08 02:37:04;;;;;;;6.57;5.03;;;1.50;99.90;;;;;;5087104;28;20573;-81
2023/03/08 02:39:29;;;;;;;10.20;5.50;;;1.50;99.90;;;;;;5100355;28;20219;-80
2023/03/08 02:41:55;;;;;;;7.07;5.60;;;1.50;99.90;;;;;;5100034;28;20673;-81
2023/03/08 02:44:20;;;;;;;10.63;5.97;;;1.50;99.90;;;;;;5099875;28;20232;-80
2023/03/08 02:46:46;;;;;;;7.13;5.03;;;1.50;99.90;;;;;;5081696;28;20193;-81
2023/03/08 02:49:12;;;;;;;10.07;5.83;;;1.50;99.90;;;;;;5100621;28;20181;-81
2023/03/08 02:51:37;;;;;;;8.10;6.10;;;1.50;99.90;;;;;;5081180;28;20705;-81
2023/03/08 02:54:03;;;;;;;9.50;6.33;;;1.50;99.90;;;;;;5100356;28;20237;-81
2023/03/08 02:56:28;;;;;;;10.10;5.93;;;1.50;99.90;;;;;;5100009;28;20536;-81
2023/03/08 02:58:54;;;;;;;16.03;6.83;;;1.50;99.90;;;;;;5099909;28;20202;-80
2023/03/08 03:01:19;;;;;;;8.03;6.43;;;1.50;99.90;;;;;;5081918;28;20186;-82
2023/03/08 03:03:45;;;;;;;15.20;6.03;;;1.50;99.90;;;;;;5100428;28;20166;-81
2023/03/08 03:06:15;;;;;;;11.13;6.60;;;1.50;99.90;;;;;;5100419;28;20170;-80
2023/03/08 03:08:41;;;;;;;12.10;6.97;;;1.50;99.90;;;;;;5100083;28;20234;-81
2023/03/08 03:11:15;;;;;;;10.93;6.50;;;1.50;99.90;;;;;;5082012;28;20270;-80
2023/03/08 03:13:40;;;;;;;10.73;7.00;;;1.60;99.90;;;;;;5101223;28;20223;-80
2023/03/08 03:16:12;;;;;;;13.33;7.57;;;1.60;99.90;;;;;;5082435;28;20210;-81
2023/03/08 03:18:38;;;;;;;16.27;7.37;;;1.60;99.90;;;;;;5080762;28;20647;-81
2023/03/08 03:21:04;;;;;;;12.90;7.30;;;1.60;99.90;;;;;;5080956;28;20224;-80
2023/03/08 03:23:30;;;;;;;14.30;7.33;;;1.60;99.90;;;;;;5080559;28;20177;-81
2023/03/08 03:25:56;;;;;;;10.27;7.20;;;1.60;99.90;;;;;;5099647;28;20253;-80
2023/03/08 03:28:21;;;;;;;12.67;8.70;;;1.60;99.90;;;;;;5082009;28;20637;-80
2023/03/08 03:30:47;;;;;;;10.17;7.57;;;1.60;99.90;;;;;;5099271;28;20186;-80
2023/03/08 03:33:13;;;;;;;14.83;8.23;;;1.60;99.90;;;;;;5080872;28;20178;-81
2023/03/08 03:35:38;;;;;;;14.67;8.33;;;1.60;99.90;;;;;;5081554;28;20673;-80
2023/03/08 03:38:04;;;;;;;11.43;7.80;;;1.50;99.90;;;;;;5099265;28;20205;-81
2023/03/08 03:40:29;;;;;;;12.97;8.27;;;1.60;99.90;;;;;;5081873;28;20205;-81
2023/03/08 03:42:55;;;;;;;13.57;8.67;;;1.50;99.90;;;;;;5086081;28;20166;-81
2023/03/08 03:45:20;;;;;;;14.80;8.63;;;1.50;99.90;;;;;;5096500;28;20170;-81
2023/03/08 03:47:46;;;;;;;13.83;9.13;;;1.50;99.90;;;;;;5114611;28;20539;-81
2023/03/08 03:50:12;;;;;;;11.47;8.70;;;1.60;99.90;;;;;;5114915;28;20162;-80
2023/03/08 03:52:38;;;;;;;13.60;9.23;;;1.60;99.90;;;;;;5114498;28;20305;-81
2023/03/08 03:55:04;;;;;;;16.80;9.90;;;1.60;99.90;;;;;;5114401;28;20231;-81
2023/03/08 03:57:29;;;;;;;15.20;10.07;;;1.60;99.90;;;;;;5084368;28;20227;-81
2023/03/08 03:59:55;;;;;;;16.37;10.30;;;1.50;99.90;;;;;;5101521;28;20198;-80
2023/03/08 04:02:20;;;;;;;16.40;10.27;;;1.60;99.90;;;;;;5101182;28;20597;-80
2023/03/08 04:04:49;;;;;;;18.10;10.90;;;1.60;99.90;;;;;;5101001;28;20196;-81
2023/03/08 04:07:15;;;;;;;16.17;10.60;;;1.50;99.90;;;;;;5082602;28;20220;-80
2023/03/08 04:09:40;;;;;;;16.33;10.07;;;1.60;99.90;;;;;;5081860;28;20273;-81
2023/03/08 04:12:06;;;;;;;19.20;10.63;;;1.50;99.90;;;;;;5100105;28;20190;-81
2023/03/08 04:14:32;;;;;;;17.27;10.67;;;1.60;99.90;;;;;;5082028;28;20538;-80
2023/03/08 04:16:57;;;;;;;14.73;10.40;;;1.60;99.90;;;;;;5099335;28;20182;-80
2023/03/08 04:19:23;;;;;;;20.00;11.97;;;1.60;99.90;;;;;;5099854;28;20182;-80
2023/03/08 04:21:48;;;;;;;21.07;11.53;;;1.60;99.90;;;;;;5100564;28;20194;-80
2023/03/08 04:24:14;;;;;;;20.70;11.90;;;1.60;99.90;;;;;;5099733;28;20224;-82
2023/03/08 04:26:39;;;;;;;18.77;11.17;;;1.60;99.90;;;;;;5099218;28;20166;-81
2023/03/08 04:29:05;;;;;;;17.60;11.83;;;1.50;99.90;;;;;;5081686;28;20174;-80
2023/03/08 04:31:33;;;;;;;20.87;12.60;;;1.60;99.90;;;;;;5080382;28;20212;-80
2023/03/08 04:33:59;;;;;;;21.57;12.90;;;1.60;99.90;;;;;;5099577;28;20181;-80
2023/03/08 04:36:25;;;;;;;22.43;12.10;;;1.60;99.90;;;;;;5085274;28;20174;-81
2023/03/08 04:38:51;;;;;;;18.87;12.17;;;1.60;99.90;;;;;;5103247;28;20229;-80
2023/03/08 04:41:18;;;;;;;22.53;13.00;;;1.60;99.90;;;;;;5083845;28;20219;-80
2023/03/08 04:43:49;;;;;;;21.83;12.53;;;1.50;99.90;;;;;;5103334;28;20202;-80
2023/03/08 04:46:16;;;;;;;21.50;12.27;;;1.60;99.90;;;;;;5103393;28;20625;-80
2023/03/08 04:48:42;;;;;;;22.53;13.40;;;1.60;99.90;;;;;;5102785;28;20178;-80
2023/03/08 04:51:09;;;;;;;21.77;12.17;;;1.50;99.90;;;;;;5102606;28;20218;-80
2023/03/08 04:53:35;;;;;;;24.83;12.77;;;1.60;99.90;;;;;;5084317;28;20209;-80
2023/03/08 04:56:01;;;;;;;21.87;13.50;;;1.60;99.90;;;;;;5102674;28;20178;-81
2023/03/08 04:58:28;;;;;;;22.87;13.33;;;1.60;99.90;;;;;;5084245;28;20179;-80
2023/03/08 05:00:54;;;;;;;26.63;13.27;;;1.60;99.90;;;;;;5083838;28;20235;-80
2023/03/08 05:03:20;;;;;;;23.57;15.07;;;1.60;99.90;;;;;;5101711;28;20239;-81
2023/03/08 05:05:48;;;;;;;24.37;13.07;;;1.50;99.90;;;;;;5101945;28;20174;-80
2023/03/08 05:08:14;;;;;;;27.10;14.67;;;1.50;99.90;;;;;;5083651;28;20178;-81
2023/03/08 05:10:45;;;;;;;23.97;14.30;;;1.50;99.90;;;;;;5101916;28;20263;-81
2023/03/08 05:13:11;;;;;;;22.33;13.13;;;1.50;99.90;;;;;;5102152;28;20157;-81
2023/03/08 05:15:36;;;;;;;24.13;13.47;;;1.60;99.90;;;;;;5101719;28;20581;-80
2023/03/08 05:18:02;;;;;;;22.67;13.67;;;1.60;99.90;;;;;;5083959;28;20249;-81
2023/03/08 05:20:27;;;;;;;24.43;13.27;;;1.50;99.90;;;;;;5101272;28;20285;-80
2023/03/08 05:22:53;;;;;;;22.53;13.77;;;1.60;99.90;;;;;;5083979;28;20202;-80
2023/03/08 05:25:18;;;;;;;21.50;12.13;;;1.50;99.90;;;;;;5101917;28;20182;-80
2023/03/08 05:27:44;;;;;;;22.07;13.93;;;1.50;99.90;;;;;;5102918;28;20184;-80
2023/03/08 05:30:10;;;;;;;22.30;11.57;;;1.50;99.90;;;;;;5101475;28;20265;-80
2023/03/08 05:32:36;;;;;;;19.87;12.67;;;1.50;99.90;;;;;;5100693;28;20255;-81
2023/03/08 05:35:01;;;;;;;18.57;12.47;;;1.50;99.90;;;;;;5082449;28;20178;-80
2023/03/08 05:37:27;;;;;;;21.03;13.27;;;1.50;99.90;;;;;;5100916;28;20225;-80
2023/03/08 05:39:52;;;;;;;20.50;12.07;;;1.50;99.90;;;;;;5082328;28;20269;-80
2023/03/08 05:42:18;;;;;;;22.20;12.90;;;1.40;99.90;;;;;;5100351;28;20194;-81
2023/03/08 05:44:44;;;;;;;20.17;12.60;;;1.40;99.90;;;;;;5081844;28;20170;-80
2023/03/08 05:47:10;;;;;;;17.00;10.87;;;1.40;99.90;;;;;;5082449;28;20181;-81
2023/03/08 05:49:35;;;;;;;22.63;12.00;;;1.40;99.90;;;;;;5100432;28;20201;-80
2023/03/08 05:52:01;;;;;;;20.20;11.57;;;1.40;99.90;;;;;;5100740;28;20566;-80
2023/03/08 05:54:26;;;;;;;19.77;11.97;;;1.40;99.90;;;;;;5100558;28;20500;-80
2023/03/08 05:56:52;;;;;;;20.30;13.07;;;1.40;99.90;;;;;;5100148;28;20253;-81
2023/03/08 05:59:18;;;;;;;21.63;12.63;;;1.40;99.90;;;;;;5081423;28;20198;-80
2023/03/08 06:01:43;;;;;;;20.33;12.77;;;1.40;99.90;;;;;;5099563;28;20222;-80
2023/03/08 06:04:09;;;;;;;21.53;13.10;;;1.40;99.90;;;;;;5081450;28;20170;-81
2023/03/08 06:06:34;;;;;;;19.97;11.40;;;1.40;99.90;;;;;;5081937;28;20171;-81
2023/03/08 06:09:00;;;;;;;22.67;12.53;;;1.40;99.90;;;;;;5082291;28;20182;-80
2023/03/08 06:11:26;;;;;;;19.23;11.57;;;1.40;99.90;;;;;;5081398;28;20201;-80
2023/03/08 06:13:51;;;;;;;22.73;12.03;;;1.40;99.90;;;;;;5099940;28;20324;-81
2023/03/08 06:16:17;;;;;;;19.37;12.00;;;1.40;99.90;;;;;;5099494;28;20220;-80
2023/03/08 06:18:43;;;;;;;17.10;9.70;;;1.30;99.90;;;;;;5081633;28;20238;-80
2023/03/08 06:21:14;;;;;;;20.43;11.33;;;1.30;99.90;;;;;;5081758;28;20537;-79
2023/03/08 06:23:40;;;;;;;16.33;9.67;;;1.30;99.90;;;;;;5098765;28;20171;-80
2023/03/08 06:26:07;;;;;;;14.57;8.60;;;1.30;99.90;;;;;;5099330;28;20218;-80
2023/03/08 06:28:32;;;;;;;16.37;9.07;;;1.30;99.90;;;;;;5080799;28;20177;-79
2023/03/08 06:30:58;;;;;;;14.20;7.90;;;1.30;99.90;;;;;;5080228;28;20198;-80
2023/03/08 06:33:27;;;;;;;10.63;6.73;;;1.30;99.90;;;;;;5099322;28;20181;-79
2023/03/08 06:36:14;;;;;;;9.70;6.03;;;1.30;99.90;;;;;;5099016;28;20178;-80
2023/03/08 06:38:40;;;;;;;10.90;6.70;;;1.30;99.90;;;;;;5098888;28;20177;-80
2023/03/08 06:41:07;;;;;;;8.97;5.73;;;1.30;99.90;;;;;;5098252;28;20194;-80
2023/03/08 06:43:33;;;;;;;12.50;6.30;;;1.30;99.90;;;;;;5079813;28;20239;-79
2023/03/08 06:46:06;;;;;;;11.03;5.97;;;1.30;99.90;;;;;;5098321;28;20202;-79
2023/03/08 06:48:33;;;;;;;12.53;6.37;;;1.30;99.90;;;;;;5097346;28;20159;-79
2023/03/08 06:50:59;;;;;;;12.63;6.67;;;1.30;99.90;;;;;;5098140;28;20213;-80
2023/03/08 06:53:24;;;;;;;7.60;5.13;;;1.30;99.90;;;;;;5078983;28;20255;-79
2023/03/08 06:55:50;;;;;;;8.73;5.00;;;1.30;99.90;;;;;;5096932;28;20602;-79
2023/03/08 06:58:15;;;;;;;9.47;4.70;;;1.30;99.90;;;;;;5097083;28;20514;-79
2023/03/08 07:00:41;;;;;;;12.23;4.50;;;1.30;99.90;;;;;;5097300;28;20202;-79
2023/03/08 07:03:06;;;;;;;7.90;4.23;;;1.30;99.90;;;;;;5079903;28;20174;-80
2023/03/08 07:05:32;;;;;;;6.33;3.90;;;1.30;99.90;;;;;;5080071;28;20226;-79
2023/03/08 07:07:57;;;;;;;5.73;3.57;;;1.30;99.90;;;;;;5079733;28;20205;-79
2023/03/08 07:10:23;;;;;;;7.37;3.73;;;1.30;99.90;;;;;;5097483;28;20209;-79
2023/03/08 07:12:50;;;;;;;6.13;3.40;;;1.20;99.90;;;;;;5079007;28;20174;-79
2023/03/08 07:15:18;;;;;;;4.97;3.33;;;1.20;99.90;;;;;;5098334;28;20193;-80
2023/03/08 07:17:48;;;;;;;4.90;3.57;;;1.20;99.90;;;;;;5097772;28;20209;-80
2023/03/08 07:20:15;;;;;;;5.80;3.70;;;1.20;99.90;;;;;;5079126;28;20240;-80
2023/03/08 07:22:43;;;;;;;5.93;3.37;;;1.20;99.90;;;;;;5078300;28;20170;-79
2023/03/08 07:25:11;;;;;;;7.97;3.50;;;1.20;99.90;;;;;;5096891;28;20691;-79
2023/03/08 07:27:36;;;;;;;6.93;4.00;;;1.20;99.90;;;;;;5097346;28;20162;-80
2023/03/08 07:30:02;;;;;;;8.83;3.57;;;1.30;99.90;;;;;;5079130;28;20182;-80
2023/03/08 07:32:27;;;;;;;7.17;3.70;;;1.20;99.90;;;;;;5079340;28;20532;-80
2023/03/08 07:34:54;;;;;;;8.83;3.67;;;1.20;99.90;;;;;;5097704;28;20181;-80
2023/03/08 07:37:20;;;;;;;6.90;3.80;;;1.20;99.90;;;;;;5081197;28;20174;-80
2023/03/08 07:39:45;;;;;;;5.97;3.60;;;1.30;99.90;;;;;;5082236;28;20745;-80
2023/03/08 07:42:11;;;;;;;8.47;3.80;;;1.20;99.90;;;;;;5098306;28;20220;-80
2023/03/08 07:44:36;;;;;;;7.00;3.73;;;1.30;99.90;;;;;;5078639;28;20750;-80
2023/03/08 07:47:04;;;;;;;6.83;4.20;;;1.30;99.90;;;;;;5096474;28;20241;-79
2023/03/08 07:49:29;;;;;;;8.03;3.93;;;1.20;99.90;;;;;;5077987;28;20186;-80
2023/03/08 07:51:56;;;;;;;9.10;4.23;;;1.30;99.90;;;;;;5097200;28;20201;-79
2023/03/08 07:54:22;;;;;;;6.70;3.90;;;1.30;99.90;;;;;;5096221;28;20550;-80
2023/03/08 07:56:47;;;;;;;6.70;3.57;;;1.30;99.90;;;;;;5078273;28;20189;-79
2023/03/08 07:59:13;;;;;;;6.73;4.17;;;1.30;99.90;;;;;;5097068;28;20193;-80
2023/03/08 08:01:39;;;;;;;7.43;3.90;;;1.20;99.90;;;;;;5078154;28;20194;-80
2023/03/08 08:04:06;;;;;;;6.37;3.50;;;1.20;99.90;;;;;;5096510;28;20184;-80
2023/03/08 08:06:37;;;;;;;4.60;3.00;;;1.20;99.90;;;;;;5078506;28;20185;-80
2023/03/08 08:09:02;;;;;;;6.13;3.83;;;1.20;99.90;;;;;;5096066;28;20158;-80
2023/03/08 08:11:28;;;;;;;4.17;2.90;;;1.20;99.90;;;;;;5096220;28;20198;-80
2023/03/08 08:13:53;;;;;;;3.63;2.83;;;1.20;99.90;;;;;;5078576;28;20174;-79
2023/03/08 08:16:19;;;;;;;5.07;2.80;;;1.20;99.90;;;;;;5077846;28;20174;-80
2023/03/08 08:18:44;;;;;;;4.33;2.50;;;1.20;99.90;;;;;;5096243;28;20197;-80
2023/03/08 08:21:15;;;;;;;3.93;2.67;;;1.20;99.90;;;;;;5096370;28;20265;-80
2023/03/08 08:23:41;;;;;;;3.33;2.10;;;1.20;99.90;;;;;;5096779;28;20181;-80
2023/03/08 08:26:13;;;;;;;4.67;1.90;;;1.20;99.90;;;;;;5095588;28;20162;-80
2023/03/08 08:28:40;;;;;;;5.97;2.30;;;1.20;99.90;;;;;;5076953;28;20280;-80
2023/03/08 08:31:09;;;;;;;4.07;1.73;;;1.20;99.90;;;;;;5095886;28;20182;-80
2023/03/08 08:33:34;;;;;;;3.37;1.90;;;1.20;99.90;;;;;;5077459;28;20175;-80
2023/03/08 08:36:04;;;;;;;2.10;1.43;;;1.20;99.90;;;;;;5077165;28;20175;-79
2023/03/08 08:38:29;;;;;;;3.03;1.87;;;1.20;99.90;;;;;;5095842;28;20166;-79
2023/03/08 08:41:01;;;;;;;2.53;1.90;;;1.20;99.90;;;;;;5095523;28;20266;-79
2023/03/08 08:43:28;;;;;;;2.13;1.70;;;1.20;99.90;;;;;;5095775;28;20654;-79
2023/03/08 08:45:56;;;;;;;5.63;2.00;;;1.20;99.90;;;;;;5077255;28;20171;-80
2023/03/08 08:48:21;;;;;;;2.37;1.60;;;1.10;99.90;;;;;;5095628;28;20221;-80
2023/03/08 08:50:47;;;;;;;2.40;1.77;;;1.20;99.90;;;;;;5077001;28;20650;-80
2023/03/08 08:53:12;;;;;;;1.87;1.67;;;1.20;99.90;;;;;;5095586;28;20216;-80
2023/03/08 08:55:38;;;;;;;4.00;1.93;;;1.20;99.90;;;;;;5077197;28;20178;-80
2023/03/08 08:58:05;;;;;;;2.67;1.67;;;1.20;99.90;;;;;;5095963;28;20173;-80
2023/03/08 09:00:32;;;;;;;2.87;1.70;;;1.20;99.90;;;;;;5095494;28;20586;-80
2023/03/08 09:02:58;;;;;;;2.20;1.53;;;1.30;99.90;;;;;;5095476;28;20174;-80
2023/03/08 09:05:24;;;;;;;2.47;1.50;;;1.30;99.90;;;;;;5077338;28;20185;-79
2023/03/08 09:07:52;;;;;;;2.00;1.50;;;1.30;99.90;;;;;;5097045;28;20166;-80
2023/03/08 09:10:18;;;;;;;1.37;1.27;;;1.30;99.90;;;;;;5078078;28;20284;-80
2023/03/08 09:12:43;;;;;;;2.33;1.20;;;1.30;99.90;;;;;;5096986;28;20166;-80
2023/03/08 09:15:10;;;;;;;2.37;1.60;;;1.30;99.90;;;;;;5096647;28;20166;-80
2023/03/08 09:17:37;;;;;;;1.77;1.40;;;1.30;99.90;;;;;;5078616;28;20526;-81
2023/03/08 09:20:05;;;;;;;1.77;1.43;;;1.30;99.90;;;;;;5097519;28;20266;-81
2023/03/08 09:22:31;;;;;;;2.33;1.50;;;1.30;99.90;;;;;;5099948;28;20552;-81
2023/03/08 09:24:56;;;;;;;1.60;1.37;;;1.30;99.90;;;;;;5082208;28;20660;-80
2023/03/08 09:27:22;;;;;;;1.63;1.40;;;1.30;99.90;;;;;;5100299;28;20174;-80
2023/03/08 09:29:47;;;;;;;2.33;1.50;;;1.30;99.90;;;;;;5100220;28;20174;-80
2023/03/08 09:32:13;;;;;;;3.73;1.63;;;1.40;99.90;;;;;;5081682;28;20190;-80
2023/03/08 09:34:39;;;;;;;2.43;1.73;;;1.40;99.90;;;;;;5081592;28;20269;-80
2023/03/08 09:37:07;;;;;;;2.27;1.50;;;1.40;99.90;;;;;;5099241;28;20177;-80
2023/03/08 09:39:33;;;;;;;3.53;1.90;;;1.40;99.90;;;;;;5080817;28;20198;-80
2023/03/08 09:42:00;;;;;;;2.53;1.83;;;1.40;99.90;;;;;;5100640;28;20269;-80
2023/03/08 09:44:44;;;;;;;3.70;1.90;;;1.40;99.90;;;;;;5100101;28;20166;-82
2023/03/08 09:47:23;;;;;;;1.83;1.43;;;1.40;99.90;;;;;;5101312;28;20154;-81
2023/03/08 09:49:53;;;;;;;2.73;1.50;;;1.30;99.90;;;;;;5083184;28;20170;-80
2023/03/08 09:52:32;;;;;;;1.80;1.40;;;1.40;99.90;;;;;;5106395;28;20327;-81
2023/03/08 09:54:59;;;;;;;2.33;1.87;;;1.40;99.90;;;;;;5111248;28;20157;-81
2023/03/08 09:57:31;;;;;;;2.17;1.90;;;1.40;99.90;;;;;;5103464;28;20173;-81
2023/03/08 10:00:01;;;;;;;2.50;1.60;;;1.40;99.90;;;;;;5081163;28;20196;-81
2023/03/08 10:02:51;;;;;;;1.80;1.50;;;1.40;99.90;;;;;;5080710;28;20225;-80
2023/03/08 10:05:40;;;;;;;2.80;2.27;;;1.50;99.90;;;;;;5099003;28;20242;-81
2023/03/08 10:08:50;;;;;;;2.47;2.27;;;1.50;99.90;;;;;;5099652;28;20177;-80
2023/03/08 10:11:30;;;;;;;2.73;1.97;;;1.50;99.90;;;;;;5054109;28;20237;-79
2023/03/08 10:14:01;;;;;;;3.73;2.10;;;1.50;99.90;;;;;;5099786;28;20170;-80
2023/03/08 10:16:32;;;;;;;2.00;1.90;;;1.60;99.90;;;;;;5081241;28;20170;-81
2023/03/08 10:19:05;;;;;;;2.67;2.30;;;1.60;99.90;;;;;;5082172;28;20567;-81
2023/03/08 10:21:35;;;;;;;2.37;2.10;;;1.60;99.90;;;;;;5099930;28;20218;-81
2023/03/08 10:24:29;;;;;;;3.07;2.57;;;1.60;99.90;;;;;;5081765;28;20182;-81
2023/03/08 10:27:05;;;;;;;2.30;1.93;;;1.60;99.90;;;;;;5082584;28;20175;-81
2023/03/08 10:29:30;;;;;;;2.37;2.10;;;1.60;99.90;;;;;;5081391;28;20196;-81
2023/03/08 10:31:56;;;;;;;2.40;2.20;;;1.70;99.90;;;;;;5100328;28;20190;-81
2023/03/08 10:34:28;;;;;;;2.30;1.87;;;1.70;99.90;;;;;;5099768;28;20529;-81
2023/03/08 10:37:03;;;;;;;2.77;2.20;;;1.70;99.90;;;;;;5081729;28;20198;-81
2023/03/08 10:39:29;;;;;;;2.30;2.10;;;1.70;99.90;;;;;;5099571;28;20405;-81
2023/03/08 10:41:58;;;;;;;2.33;2.03;;;1.70;99.90;;;;;;5081199;28;20285;-81
2023/03/08 10:44:35;;;;;;;3.33;2.30;;;1.80;99.90;;;;;;5080923;28;20213;-81
2023/03/08 10:47:22;;;;;;;2.57;2.03;;;1.80;99.90;;;;;;5099846;28;20174;-81
2023/03/08 10:49:48;;;;;;;2.57;2.23;;;1.80;99.90;;;;;;5081734;28;20334;-81
2023/03/08 10:52:24;;;;;;;3.30;2.30;;;1.90;99.90;;;;;;5099298;28;20213;-82
2023/03/08 10:55:27;;;;;;;3.13;2.50;;;1.90;99.90;;;;;;5099420;28;20227;-82
2023/03/08 10:58:00;;;;;;;2.63;2.20;;;2.00;99.90;;;;;;5058255;28;20182;-81
2023/03/08 11:00:50;;;;;;;3.20;2.30;;;2.10;99.90;;;;;;5080707;28;20261;-82
2023/03/08 11:03:18;;;;;;;2.67;2.40;;;2.10;99.90;;;;;;5099628;28;20166;-82
2023/03/08 11:05:56;;;;;;;2.30;2.10;;;2.10;99.90;;;;;;5079725;28;20551;-83
2023/03/08 11:08:53;;;;;;;4.60;2.40;;;2.10;99.90;;;;;;5098756;28;20236;-82
2023/03/08 11:11:18;;;;;;;2.53;2.20;;;2.00;99.90;;;;;;5098892;28;20200;-82
2023/03/08 11:13:46;;;;;;;2.33;2.13;;;2.00;99.90;;;;;;5097788;28;20175;-82
2023/03/08 11:16:24;;;;;;;2.20;1.97;;;2.10;99.90;;;;;;5079840;28;20208;-82
2023/03/08 11:19:09;;;;;;;4.03;1.87;;;2.10;99.90;;;;;;5098348;28;20262;-82
2023/03/08 11:21:55;;;;;;;2.37;2.00;;;2.10;99.90;;;;;;5097777;28;20198;-82
2023/03/08 11:24:39;;;;;;;2.40;1.93;;;2.00;99.90;;;;;;5078775;28;20254;-82
2023/03/08 11:27:29;;;;;;;3.43;2.00;;;2.00;99.90;;;;;;5078390;28;20167;-82
2023/03/08 11:30:13;;;;;;;2.23;2.03;;;2.00;99.90;;;;;;5078551;28;20625;-81
2023/03/08 11:33:06;;;;;;;2.97;2.10;;;2.00;99.90;;;;;;5097113;28;20634;-81
2023/03/08 11:35:54;;;;;;;1.80;1.70;;;2.00;99.90;;;;;;5078831;28;20166;-81
2023/03/08 11:38:24;;;;;;;2.10;1.90;;;2.00;99.90;;;;;;5097377;28;20173;-82
2023/03/08 11:41:19;;;;;;;2.37;2.17;;;2.00;99.90;;;;;;5097174;28;20259;-81
2023/03/08 11:44:13;;;;;;;2.60;2.37;;;2.00;99.90;;;;;;5097406;28;20518;-81
2023/03/08 11:46:58;;;;;;;2.93;2.63;;;2.10;99.90;;;;;;5097936;28;20608;-82
2023/03/08 11:49:50;;;;;;;2.90;2.70;;;2.00;99.90;;;;;;5079597;28;20269;-81
2023/03/08 11:52:38;;;;;;;3.73;3.23;;;2.10;99.90;;;;;;5098079;28;20227;-81
2023/03/08 11:55:35;;;;;;;2.90;2.57;;;2.00;99.90;;;;;;5080816;28;20231;-82
2023/03/08 11:58:23;;;;;;;2.97;2.70;;;2.10;99.90;;;;;;5098646;28;20166;-81
2023/03/08 12:00:52;;;;;;;3.03;2.70;;;2.00;99.90;;;;;;5085692;28;20226;-81
2023/03/08 12:03:22;;;;;;;3.73;3.37;;;2.00;99.90;;;;;;5080966;28;20174;-81
2023/03/08 12:05:56;;;;;;;3.57;3.27;;;2.00;99.90;;;;;;5081461;28;20319;-81
2023/03/08 12:08:30;;;;;;;4.57;3.60;;;2.00;99.90;;;;;;5088807;28;20184;-82
2023/03/08 12:11:02;;;;;;;4.00;3.60;;;2.00;99.90;;;;;;5091294;28;20190;-81
2023/03/08 12:13:33;;;;;;;5.17;4.10;;;2.10;99.90;;;;;;5079328;28;20223;-81
2023/03/08 12:16:08;;;;;;;3.77;3.37;;;2.00;99.90;;;;;;5097134;28;20225;-81
2023/03/08 12:18:43;;;;;;;4.80;3.87;;;2.10;99.90;;;;;;5079200;28;20253;-82
2023/03/08 12:21:34;;;;;;;5.03;3.90;;;2.10;99.90;;;;;;5078614;28;20209;-84
2023/03/08 12:24:24;;;;;;;7.07;4.60;;;2.10;99.90;;;;;;5096303;28;20167;-82
2023/03/08 12:27:10;;;;;;;4.50;3.73;;;2.10;99.90;;;;;;5097280;28;20202;-82
2023/03/08 12:30:12;;;;;;;4.20;3.80;;;2.10;99.90;;;;;;5096930;28;20506;-83
2023/03/08 12:32:40;;;;;;;4.03;3.70;;;2.20;99.90;;;;;;5079213;28;20190;-82
2023/03/08 12:35:35;;;;;;;5.70;4.07;;;2.20;99.90;;;;;;5097955;28;20166;-82
2023/03/08 12:38:25;;;;;;;5.57;4.10;;;2.20;99.90;;;;;;5080029;28;20170;-82
2023/03/08 12:40:53;;;;;;;4.57;3.67;;;2.30;99.90;;;;;;5098137;28;20216;-82
2023/03/08 12:43:19;;;;;;;6.70;4.00;;;2.20;99.90;;;;;;5097295;28;20177;-82
2023/03/08 12:45:59;;;;;;;4.40;4.00;;;2.20;99.90;;;;;;5079719;28;20268;-82
2023/03/08 12:48:37;;;;;;;5.93;4.20;;;2.30;99.90;;;;;;5098631;28;20201;-82
2023/03/08 12:51:13;;;;;;;5.10;4.20;;;2.30;99.90;;;;;;5079597;28;20224;-82
2023/03/08 12:53:42;;;;;;;4.50;4.10;;;2.30;99.90;;;;;;5098744;28;20170;-80
2023/03/08 12:56:08;;;;;;;4.37;3.97;;;2.40;99.90;;;;;;5083123;28;20182;-81
2023/03/08 12:58:55;;;;;;;11.77;4.27;;;2.40;99.90;;;;;;5083916;28;20174;-80
2023/03/08 13:01:36;;;;;;;4.57;4.03;;;2.40;99.90;;;;;;5082931;28;20210;-81